Aeroporto :
LOGIN :

Iscrizione | Disclaimer

   EN    FR    IT 

 










Sommario :    VFR   VFR Marginale   IFR   IFR Intensivo   IFR Molto Intensivo
Visibilità : 
Base nubi : 
>= 8 km
>= 3000ft
5 / 8 km
1000 / 3000 ft
1500m / 5 km
500 / 1000 ft
800 / 1500m
200 / 500 ft
< 800m
< 200 ft
Simboli :   Temporali  Nebbia  Neve Forte  Precipitazioni Forti  Vento > 20 kt
SIGMETs :   Varie  Temporali  Ghiacco  Turbolenza  Onda orograficha  Ceneri Vulcaniche







- Altitudine del aeroporto : 3125 ft
- Codice IATA : ESB


LTAC - Ankara Esenboga

ULTIMO METAR :
  • 201420Z 36014KT 9999 SCT040 BKN100 05/M06 Q1015 NOSIG RMK RWY21L 36017KT RWY03L 36011KT RWY21R 01013KT

METARs OBSOLETI :
  • 201350Z 36011KT 330V040 9999 SCT040 BKN100 05/M07 Q1015 NOSIG
  • 201320Z 27010KT 240V300 9999 SCT035 BKN100 05/M05 Q1015 BECMG 01012KT
  • 201250Z 33007KT 240V030 9999 SCT035 BKN090 06/M08 Q1015 NOSIG RMK RWY21L 02009KT RWY03L 31005KT 250V010 RWY21R 04007KT 310V070
  • 201220Z 25005KT 200V360 9999 SCT035 BKN100 06/M07 Q1015 BECMG 01012KT
  • 201150Z 05007KT 020V090 9999 SCT040 BKN100 05/M07 Q1016 NOSIG RMK RWY21L 01004KT 310V120 RWY03L 06005KT 020V130 RWY21R 06010G20KT 030V130

TAF TAF LTAC
Valido dal 20 a 12 ore il 21 a 12 ore UTC


201040Z 2012/2112 01012KT 9999 SCT040 BKN100
TEMPO 2012/2016 34015G25KT -SHSNRA BKN030 BKN080
BECMG 2017/2020 VRB02KT
Nessun NOTAM noto per questo aeroporto.



MetMap, La meteo Aeronautica in un colpo d'occhio ! - Copyright ORBIFLY Dicembre 2007 - Disclaimer

ORBIFLY MET'MAP TEAM :

Programmazione e sviluppo : Alexandra Zaïnal
Concezione e sviluppo : Baudouin d'Aumeries
Co-Programmazione e sviluppo : Marc-Olivier Méhu
Supporto tecnico e logistico : Manuel Goepfert
Aiuto per la traduzione : Arnaldo La Scala

Contatto : metmap@orbifly.com




FONTI E CREDITI :

   NOAA